Archival Weather

Longyear

Longyear, Svalbard (ENSB)

Report from: Wednesday, December 6, 2023 11:20 PM UTC
Current time: Saturday, February 24, 2024 4:08 PM UTC

Current weather – Weather history – Daily summaries
Weather forecast

Temperature-4.0°C (24.8°F)
Wind chill-11.6°C (11.1°F)
Dew point-9.0°C (15.8°F)
Winds 16 kts (8.2 m/s, 18.4 mph) East-Southeast (120°)
Visibility6.2 mi. (10 km)
Clouds Few clouds 3,000 ft. (914 m)
Scattered clouds 13,000 ft. (3,962 m)
Altimeter30.50 in.Hg (1033 mB)
Relative humidity68 %
Density altitude-2,964 ft. (-903 m)
Flight conditions Visual Meteorological Conditions
Raw dataENSB 062320Z 12016KT 9999 FEW030 SCT130 M04/M09 Q1033 RMK WIND 1400FT 11025KT
An error has occurred. This application may no longer respond until reloaded. Reload 🗙